Time;durP1;ratioP1;P1;durP2;ratioP2;P2;SDS_P1;SDS_P2;PMS_P1;PMS_P2;Temp;Humidity;BMP_temperature;BMP_pressure;BME280_temperature;BME280_humidity;BME280_pressure;Samples;Min_cycle;Max_cycle;Signal;HPM_P1;HPM_P2
2022/03/30 00:01:55;;;;;;;7.15;6.03;;;;;;;;;;5098806;28;20572;-85
2022/03/30 00:04:22;;;;;;;7.78;6.97;;;;;;;;;;5098556;28;20652;-85
2022/03/30 00:06:50;;;;;;;6.97;6.18;;;;;;;;;;5099069;28;20204;-86
2022/03/30 00:09:17;;;;;;;9.65;7.75;;;;;;;;;;5099320;28;20746;-85
2022/03/30 00:11:45;;;;;;;11.00;9.90;;;;;;;;;;5098387;28;20215;-84
2022/03/30 00:14:12;;;;;;;12.40;9.90;;;;;;;;;;5097561;28;20200;-85
2022/03/30 00:16:40;;;;;;;14.65;10.63;;;;;;;;;;5098069;28;20656;-85
2022/03/30 00:19:09;;;;;;;8.65;7.75;;;;;;;;;;5099007;28;20599;-84
2022/03/30 00:21:37;;;;;;;7.70;6.97;;;;;;;;;;5098722;28;20208;-85
2022/03/30 00:24:05;;;;;;;8.30;6.68;;;;;;;;;;5099955;28;20287;-85
2022/03/30 00:26:32;;;;;;;8.48;7.10;;;;;;;;;;5098422;28;20668;-85
2022/03/30 00:29:00;;;;;;;8.45;7.63;;;;;;;;;;5098285;28;20224;-85
2022/03/30 00:31:27;;;;;;;9.52;7.93;;;;;;;;;;5099218;28;20643;-85
2022/03/30 00:33:54;;;;;;;8.57;7.78;;;;;;;;;;5098558;28;20207;-85
2022/03/30 00:36:23;;;;;;;8.82;7.93;;;;;;;;;;5099068;28;20215;-84
2022/03/30 00:38:50;;;;;;;14.07;10.55;;;;;;;;;;5098430;28;20228;-85
2022/03/30 00:41:17;;;;;;;15.80;10.50;;;;;;;;;;5098081;28;20656;-85
2022/03/30 00:43:45;;;;;;;14.02;9.48;;;;;;;;;;5098048;28;20196;-85
2022/03/30 00:46:13;;;;;;;9.40;8.50;;;;;;;;;;5097949;28;20203;-85
2022/03/30 00:48:42;;;;;;;12.05;9.93;;;;;;;;;;5097293;28;20688;-85
2022/03/30 00:51:10;;;;;;;19.15;12.75;;;;;;;;;;5098684;28;20204;-85
2022/03/30 00:53:40;;;;;;;11.80;10.60;;;;;;;;;;5097798;28;20200;-84
2022/03/30 00:56:07;;;;;;;15.43;11.45;;;;;;;;;;5097530;28;20208;-85
2022/03/30 00:58:35;;;;;;;15.20;12.05;;;;;;;;;;5097249;28;20228;-84
2022/03/30 01:01:03;;;;;;;12.02;10.15;;;;;;;;;;5098238;28;20196;-85
2022/03/30 01:03:31;;;;;;;9.57;8.10;;;;;;;;;;5098331;28;20196;-85
2022/03/30 01:05:58;;;;;;;11.13;9.00;;;;;;;;;;5098697;28;20204;-85
2022/03/30 01:08:25;;;;;;;9.55;7.70;;;;;;;;;;5097863;28;20341;-84
2022/03/30 01:10:54;;;;;;;8.60;7.78;;;;;;;;;;5098804;28;20216;-85
2022/03/30 01:13:22;;;;;;;9.85;8.50;;;;;;;;;;5097720;28;20254;-85
2022/03/30 01:15:49;;;;;;;8.27;7.47;;;;;;;;;;5099365;28;20196;-85
2022/03/30 01:18:17;;;;;;;11.73;8.95;;;;;;;;;;5098418;28;20320;-85
2022/03/30 01:20:49;;;;;;;12.63;10.40;;;;;;;;;;5098365;28;20220;-84
2022/03/30 01:23:16;;;;;;;11.40;8.73;;;;;;;;;;5098523;28;20196;-85
2022/03/30 01:25:44;;;;;;;10.38;8.60;;;;;;;;;;5097614;28;20201;-85
2022/03/30 01:28:13;;;;;;;11.43;9.82;;;;;;;;;;5098263;28;20769;-85
2022/03/30 01:33:26;;;;;;;9.60;8.60;;;;;;;;;;5099252;28;20211;-84
2022/03/30 01:35:55;;;;;;;9.18;7.70;;;;;;;;;;5099778;28;20204;-85
2022/03/30 01:38:22;;;;;;;7.78;6.97;;;;;;;;;;5099843;28;20228;-84
2022/03/30 01:40:49;;;;;;;9.48;8.57;;;;;;;;;;5099803;28;20265;-84
2022/03/30 01:43:16;;;;;;;10.68;8.57;;;;;;;;;;5099066;28;20209;-85
2022/03/30 01:45:44;;;;;;;11.32;9.07;;;;;;;;;;5098157;28;20269;-86
2022/03/30 01:48:11;;;;;;;10.70;8.38;;;;;;;;;;5098875;28;20220;-85
2022/03/30 01:50:39;;;;;;;13.85;11.30;;;;;;;;;;5099435;28;20257;-85
2022/03/30 01:53:07;;;;;;;9.93;7.75;;;;;;;;;;5101346;28;20216;-85
2022/03/30 01:55:35;;;;;;;13.82;10.18;;;;;;;;;;5102685;28;20203;-85
2022/03/30 01:58:02;;;;;;;12.07;10.50;;;;;;;;;;5101164;28;20610;-84
2022/03/30 02:00:30;;;;;;;11.30;8.57;;;;;;;;;;5102246;28;20640;-85
2022/03/30 02:02:57;;;;;;;14.95;11.70;;;;;;;;;;5102402;28;20204;-85
2022/03/30 02:05:24;;;;;;;10.73;8.48;;;;;;;;;;5102346;28;20204;-84
2022/03/30 02:07:52;;;;;;;13.05;9.57;;;;;;;;;;5101609;28;20204;-85
2022/03/30 02:10:21;;;;;;;13.35;9.70;;;;;;;;;;5102308;28;20211;-85
2022/03/30 02:12:49;;;;;;;11.68;8.70;;;;;;;;;;5102030;28;20223;-85
2022/03/30 02:15:16;;;;;;;11.60;9.68;;;;;;;;;;5101927;28;20200;-85
2022/03/30 02:17:43;;;;;;;11.98;10.25;;;;;;;;;;5100350;28;20204;-85
2022/03/30 02:20:12;;;;;;;11.77;7.78;;;;;;;;;;5100909;28;20223;-85
2022/03/30 02:22:40;;;;;;;15.05;9.25;;;;;;;;;;5101364;28;20287;-85
2022/03/30 02:25:08;;;;;;;13.43;9.07;;;;;;;;;;5101750;28;20196;-85
2022/03/30 02:27:37;;;;;;;19.83;10.25;;;;;;;;;;5101400;28;20200;-85
2022/03/30 02:30:07;;;;;;;14.38;10.23;;;;;;;;;;5100759;28;20220;-85
2022/03/30 02:32:36;;;;;;;13.65;9.02;;;;;;;;;;5100975;28;20228;-85
2022/03/30 02:35:03;;;;;;;11.30;9.15;;;;;;;;;;5100962;28;20204;-84
2022/03/30 02:37:31;;;;;;;13.45;8.45;;;;;;;;;;5100609;28;20204;-85
2022/03/30 02:39:58;;;;;;;10.40;8.63;;;;;;;;;;5100520;28;20228;-84
2022/03/30 02:42:25;;;;;;;14.23;9.45;;;;;;;;;;5100948;28;20660;-84
2022/03/30 02:44:54;;;;;;;12.50;10.07;;;;;;;;;;5101129;28;20207;-85
2022/03/30 02:48:17;;;;;;;13.02;10.07;;;;;;;;;;5099612;28;20196;-84
2022/03/30 02:50:09;;;;;;;11.93;9.68;;;;;;;;;;5100854;28;20196;-85
2022/03/30 02:52:36;;;;;;;14.75;9.20;;;;;;;;;;5100909;28;20196;-85
2022/03/30 02:55:04;;;;;;;13.27;9.13;;;;;;;;;;5101174;28;20200;-85
2022/03/30 02:57:32;;;;;;;10.90;8.93;;;;;;;;;;5100588;28;20203;-85
2022/03/30 03:00:00;;;;;;;10.43;8.27;;;;;;;;;;5100272;28;20692;-85
2022/03/30 03:02:28;;;;;;;13.23;9.55;;;;;;;;;;5100867;28;20215;-84
2022/03/30 03:04:55;;;;;;;10.93;8.20;;;;;;;;;;5100300;28;20200;-85
2022/03/30 03:07:22;;;;;;;13.75;9.73;;;;;;;;;;5101419;28;20204;-85
2022/03/30 03:09:50;;;;;;;11.15;8.95;;;;;;;;;;5100658;28;20227;-85
2022/03/30 03:12:17;;;;;;;11.88;8.93;;;;;;;;;;5099074;28;20211;-85
2022/03/30 03:14:44;;;;;;;12.57;9.60;;;;;;;;;;5099447;28;20208;-85
2022/03/30 03:17:13;;;;;;;12.68;10.32;;;;;;;;;;5100052;28;20223;-85
2022/03/30 03:19:41;;;;;;;10.00;8.93;;;;;;;;;;5100556;28;20216;-85
2022/03/30 03:22:09;;;;;;;13.23;9.27;;;;;;;;;;5100195;28;20200;-85
2022/03/30 03:24:36;;;;;;;11.70;10.10;;;;;;;;;;5100052;28;20192;-85
2022/03/30 03:27:04;;;;;;;13.95;10.77;;;;;;;;;;5099974;28;20193;-85
2022/03/30 03:29:31;;;;;;;12.57;9.57;;;;;;;;;;5101067;28;20220;-85
2022/03/30 03:31:58;;;;;;;9.20;7.40;;;;;;;;;;5100573;28;20197;-85
2022/03/30 03:34:27;;;;;;;15.02;9.98;;;;;;;;;;5100499;28;20207;-85
2022/03/30 03:36:54;;;;;;;9.68;7.82;;;;;;;;;;5100867;28;20235;-85
2022/03/30 03:39:22;;;;;;;10.50;8.88;;;;;;;;;;5100292;28;20223;-84
2022/03/30 03:41:49;;;;;;;10.55;8.63;;;;;;;;;;5099917;28;20646;-83
2022/03/30 03:44:17;;;;;;;10.45;8.70;;;;;;;;;;5100588;28;20353;-84
2022/03/30 03:46:44;;;;;;;15.68;10.57;;;;;;;;;;5101234;28;20188;-85
2022/03/30 03:49:12;;;;;;;13.48;9.63;;;;;;;;;;5101044;28;20223;-85
2022/03/30 03:51:40;;;;;;;14.70;10.23;;;;;;;;;;5099649;28;20200;-85
2022/03/30 03:54:08;;;;;;;11.65;9.63;;;;;;;;;;5100887;28;20204;-84
2022/03/30 03:56:35;;;;;;;12.63;10.23;;;;;;;;;;5099944;28;20290;-85
2022/03/30 03:59:03;;;;;;;12.35;8.15;;;;;;;;;;5100694;28;20223;-85
2022/03/30 04:01:31;;;;;;;10.32;7.85;;;;;;;;;;5100823;28;20307;-85
2022/03/30 04:03:58;;;;;;;8.70;6.80;;;;;;;;;;5100920;28;20668;-85
2022/03/30 04:06:26;;;;;;;12.93;9.15;;;;;;;;;;5100503;28;20208;-85
2022/03/30 04:08:54;;;;;;;8.02;6.80;;;;;;;;;;5099415;28;20247;-83
2022/03/30 04:11:22;;;;;;;9.68;7.53;;;;;;;;;;5100435;28;20192;-84
2022/03/30 04:13:49;;;;;;;10.60;7.90;;;;;;;;;;5098558;28;20204;-84
2022/03/30 04:16:17;;;;;;;12.32;8.20;;;;;;;;;;5099250;28;20192;-84
2022/03/30 04:18:45;;;;;;;8.80;7.82;;;;;;;;;;5097918;28;20224;-85
2022/03/30 04:21:12;;;;;;;8.90;7.28;;;;;;;;;;5098616;28;20569;-85
2022/03/30 04:23:40;;;;;;;10.82;8.07;;;;;;;;;;5098942;28;20212;-84
2022/03/30 04:26:11;;;;;;;11.57;8.38;;;;;;;;;;5098782;28;20200;-85
2022/03/30 04:28:40;;;;;;;9.88;8.88;;;;;;;;;;5099357;28;20308;-85
2022/03/30 04:31:08;;;;;;;9.70;8.23;;;;;;;;;;5099471;28;20196;-84
2022/03/30 04:33:35;;;;;;;11.23;8.70;;;;;;;;;;5099044;28;20224;-85
2022/03/30 04:36:03;;;;;;;10.32;8.18;;;;;;;;;;5098549;28;20196;-85
2022/03/30 04:38:31;;;;;;;11.32;8.20;;;;;;;;;;5099232;28;20226;-85
2022/03/30 04:40:58;;;;;;;11.82;8.65;;;;;;;;;;5100981;28;20224;-84
2022/03/30 04:43:27;;;;;;;11.38;8.70;;;;;;;;;;5101519;28;20287;-85
2022/03/30 04:45:55;;;;;;;9.93;6.95;;;;;;;;;;5098833;28;20231;-84
2022/03/30 04:48:23;;;;;;;8.25;7.47;;;;;;;;;;5098778;28;20223;-85
2022/03/30 04:50:51;;;;;;;9.93;7.47;;;;;;;;;;5098192;28;20200;-84
2022/03/30 04:53:18;;;;;;;10.18;7.82;;;;;;;;;;5098041;28;20621;-85
2022/03/30 04:55:46;;;;;;;9.85;7.60;;;;;;;;;;5098963;28;20203;-84
2022/03/30 04:58:13;;;;;;;12.55;8.95;;;;;;;;;;5098536;28;20215;-84
2022/03/30 05:00:42;;;;;;;9.95;7.70;;;;;;;;;;5098812;28;20200;-84
2022/03/30 05:03:09;;;;;;;9.32;8.02;;;;;;;;;;5099285;28;20208;-85
2022/03/30 05:05:37;;;;;;;9.85;7.28;;;;;;;;;;5098795;28;20208;-84
2022/03/30 05:08:04;;;;;;;11.35;7.55;;;;;;;;;;5099180;28;20269;-85
2022/03/30 05:10:32;;;;;;;9.07;6.38;;;;;;;;;;5098948;28;20209;-84
2022/03/30 05:13:00;;;;;;;8.70;5.85;;;;;;;;;;5098786;28;20196;-84
2022/03/30 05:15:28;;;;;;;7.05;6.30;;;;;;;;;;5098049;28;20229;-86
2022/03/30 05:17:57;;;;;;;9.32;7.15;;;;;;;;;;5096465;28;20263;-79
2022/03/30 05:20:25;;;;;;;10.13;6.70;;;;;;;;;;5092266;28;20203;-77
2022/03/30 05:22:52;;;;;;;8.52;6.20;;;;;;;;;;5092233;28;20306;-77
2022/03/30 05:25:20;;;;;;;11.88;7.32;;;;;;;;;;5092253;28;20204;-78
2022/03/30 05:27:47;;;;;;;7.88;6.68;;;;;;;;;;5095886;28;20235;-77
2022/03/30 05:30:15;;;;;;;6.03;5.43;;;;;;;;;;5095878;28;20715;-77
2022/03/30 05:32:45;;;;;;;5.93;5.32;;;;;;;;;;5095766;28;20676;-77
2022/03/30 05:35:15;;;;;;;5.15;4.45;;;;;;;;;;5096484;28;20295;-77
2022/03/30 05:37:44;;;;;;;9.75;6.30;;;;;;;;;;5101093;28;20204;-77
2022/03/30 05:40:12;;;;;;;5.25;4.50;;;;;;;;;;5106572;28;20207;-77
2022/03/30 05:42:40;;;;;;;9.32;6.78;;;;;;;;;;5104108;28;20249;-77
2022/03/30 05:45:08;;;;;;;10.25;6.63;;;;;;;;;;5105606;28;20200;-77
2022/03/30 05:47:35;;;;;;;7.47;6.13;;;;;;;;;;5104822;28;20200;-77
2022/03/30 05:50:03;;;;;;;9.63;7.05;;;;;;;;;;5098245;28;20220;-76
2022/03/30 05:52:31;;;;;;;9.82;6.45;;;;;;;;;;5095248;28;20625;-76
2022/03/30 05:54:58;;;;;;;8.15;6.32;;;;;;;;;;5095994;28;20204;-76
2022/03/30 05:57:26;;;;;;;7.03;5.97;;;;;;;;;;5095481;28;20205;-76
2022/03/30 05:59:53;;;;;;;10.68;6.38;;;;;;;;;;5095705;28;20247;-76
2022/03/30 06:02:20;;;;;;;8.13;6.68;;;;;;;;;;5095676;28;20227;-77
2022/03/30 06:04:49;;;;;;;6.20;5.60;;;;;;;;;;5095902;28;20200;-78
2022/03/30 06:07:17;;;;;;;9.52;6.35;;;;;;;;;;5095725;28;20665;-77
2022/03/30 06:09:45;;;;;;;10.35;7.63;;;;;;;;;;5095882;28;20231;-78
2022/03/30 06:12:13;;;;;;;6.80;5.35;;;;;;;;;;5095638;28;20630;-77
2022/03/30 06:14:41;;;;;;;10.20;6.38;;;;;;;;;;5095723;28;20255;-77
2022/03/30 06:17:09;;;;;;;9.43;6.72;;;;;;;;;;5095587;28;20247;-78
2022/03/30 06:19:37;;;;;;;9.23;6.65;;;;;;;;;;5095892;28;20314;-77
2022/03/30 06:22:08;;;;;;;9.88;7.35;;;;;;;;;;5095746;28;20231;-77
2022/03/30 06:24:37;;;;;;;8.52;7.03;;;;;;;;;;5095460;28;20713;-77
2022/03/30 06:27:07;;;;;;;10.73;6.82;;;;;;;;;;5095439;28;20200;-78
2022/03/30 06:29:35;;;;;;;9.68;6.72;;;;;;;;;;5096550;28;20221;-78
2022/03/30 06:32:03;;;;;;;10.25;6.85;;;;;;;;;;5095773;28;20241;-78
2022/03/30 06:34:30;;;;;;;9.48;6.65;;;;;;;;;;5096948;28;20205;-78
2022/03/30 06:36:58;;;;;;;10.30;7.93;;;;;;;;;;5096317;28;20622;-77
2022/03/30 06:39:25;;;;;;;8.82;7.40;;;;;;;;;;5095882;28;20224;-78
2022/03/30 06:41:53;;;;;;;9.93;6.80;;;;;;;;;;5096584;28;20243;-78
2022/03/30 06:44:21;;;;;;;10.00;8.20;;;;;;;;;;5096031;28;20206;-79
2022/03/30 06:46:48;;;;;;;10.63;7.25;;;;;;;;;;5096875;28;20640;-77
2022/03/30 06:49:16;;;;;;;9.85;8.23;;;;;;;;;;5096034;28;20641;-78
2022/03/30 06:51:43;;;;;;;10.52;7.70;;;;;;;;;;5096905;28;20256;-79
2022/03/30 06:54:11;;;;;;;9.32;6.60;;;;;;;;;;5096828;28;20644;-77
2022/03/30 06:56:38;;;;;;;11.63;8.15;;;;;;;;;;5098417;28;20207;-78
2022/03/30 06:59:05;;;;;;;10.35;6.75;;;;;;;;;;5097652;28;20228;-78
2022/03/30 07:01:35;;;;;;;10.88;7.78;;;;;;;;;;5095993;28;20200;-77
2022/03/30 07:04:02;;;;;;;9.82;7.35;;;;;;;;;;5095293;28;20231;-78
2022/03/30 07:06:30;;;;;;;7.85;6.53;;;;;;;;;;5096936;28;20264;-77
2022/03/30 07:11:42;;;;;;;7.70;6.43;;;;;;;;;;5096735;28;20683;-77
2022/03/30 07:14:09;;;;;;;8.85;7.90;;;;;;;;;;5096429;28;20242;-78
2022/03/30 07:16:38;;;;;;;10.15;7.47;;;;;;;;;;5096532;28;20219;-78
2022/03/30 07:19:06;;;;;;;7.63;6.32;;;;;;;;;;5096050;28;20295;-77
2022/03/30 07:21:33;;;;;;;7.65;6.82;;;;;;;;;;5095491;28;20200;-77
2022/03/30 07:24:00;;;;;;;11.25;8.27;;;;;;;;;;5096310;28;20731;-77
2022/03/30 07:26:28;;;;;;;14.63;10.40;;;;;;;;;;5096270;28;20599;-78
2022/03/30 07:28:55;;;;;;;11.50;8.52;;;;;;;;;;5096806;28;20240;-78
2022/03/30 07:31:23;;;;;;;12.15;9.07;;;;;;;;;;5096749;28;20206;-77
2022/03/30 07:33:51;;;;;;;11.35;8.85;;;;;;;;;;5095997;28;20196;-77
2022/03/30 07:36:18;;;;;;;8.90;7.68;;;;;;;;;;5097081;28;20207;-78
2022/03/30 07:38:46;;;;;;;10.50;7.50;;;;;;;;;;5096897;28;20225;-77
2022/03/30 07:41:13;;;;;;;8.25;7.25;;;;;;;;;;5099084;28;20725;-77
2022/03/30 07:43:40;;;;;;;8.07;6.03;;;;;;;;;;5098407;28;20223;-78
2022/03/30 07:46:11;;;;;;;9.98;8.45;;;;;;;;;;5096511;28;20703;-78
2022/03/30 07:48:38;;;;;;;10.82;8.35;;;;;;;;;;5095346;28;20216;-77
2022/03/30 07:51:07;;;;;;;9.98;7.40;;;;;;;;;;5093921;28;20571;-77
2022/03/30 07:53:34;;;;;;;6.85;5.95;;;;;;;;;;5095116;28;20200;-77
2022/03/30 07:56:01;;;;;;;11.13;9.50;;;;;;;;;;5096610;28;20204;-77
2022/03/30 07:58:29;;;;;;;14.25;9.55;;;;;;;;;;5096071;28;20739;-77
2022/03/30 08:00:56;;;;;;;14.15;11.02;;;;;;;;;;5097254;28;20207;-79
2022/03/30 08:03:24;;;;;;;10.73;9.60;;;;;;;;;;5097432;28;20226;-78
2022/03/30 08:05:51;;;;;;;11.02;9.15;;;;;;;;;;5096477;28;20204;-78
2022/03/30 08:08:20;;;;;;;12.32;8.55;;;;;;;;;;5097547;28;20250;-78
2022/03/30 08:10:47;;;;;;;11.20;9.45;;;;;;;;;;5098018;28;20274;-78
2022/03/30 08:13:14;;;;;;;9.52;7.95;;;;;;;;;;5096324;28;20245;-78
2022/03/30 08:15:43;;;;;;;8.60;7.00;;;;;;;;;;5097288;28;20236;-79
2022/03/30 08:18:10;;;;;;;11.35;7.15;;;;;;;;;;5097686;28;20273;-78
2022/03/30 08:23:24;;;;;;;13.60;10.93;;;;;;;;;;5095961;28;20223;-77
2022/03/30 08:25:52;;;;;;;16.80;12.70;;;;;;;;;;5094252;28;20200;-77
2022/03/30 08:28:19;;;;;;;15.63;10.98;;;;;;;;;;5095233;28;20223;-76
2022/03/30 08:30:48;;;;;;;14.65;10.85;;;;;;;;;;5095558;28;20204;-77
2022/03/30 08:33:16;;;;;;;10.45;9.40;;;;;;;;;;5095508;28;20203;-77
2022/03/30 08:35:44;;;;;;;11.88;10.05;;;;;;;;;;5095427;28;20291;-78
2022/03/30 08:38:11;;;;;;;11.65;9.95;;;;;;;;;;5095600;28;20220;-78
2022/03/30 08:40:40;;;;;;;10.57;9.00;;;;;;;;;;5095393;28;20261;-78
2022/03/30 08:43:08;;;;;;;12.38;10.65;;;;;;;;;;5093647;28;20228;-78
2022/03/30 08:45:35;;;;;;;17.95;12.93;;;;;;;;;;5093970;28;20216;-77
2022/03/30 08:48:04;;;;;;;10.55;9.15;;;;;;;;;;5092673;28;20220;-77
2022/03/30 08:50:31;;;;;;;13.35;11.23;;;;;;;;;;5092345;28;20294;-77
2022/03/30 08:53:03;;;;;;;13.68;11.13;;;;;;;;;;5092131;28;20254;-77
2022/03/30 08:55:31;;;;;;;15.00;12.57;;;;;;;;;;5092095;28;20233;-77
2022/03/30 08:58:00;;;;;;;17.58;12.75;;;;;;;;;;5092671;28;20574;-77
2022/03/30 09:00:30;;;;;;;16.95;11.93;;;;;;;;;;5092460;28;20275;-77
2022/03/30 09:03:00;;;;;;;10.15;8.60;;;;;;;;;;5092417;28;20222;-77
2022/03/30 09:05:29;;;;;;;11.20;9.48;;;;;;;;;;5094660;28;20468;-78
2022/03/30 09:08:10;;;;;;;10.57;9.07;;;;;;;;;;5093260;28;20204;-78
2022/03/30 09:10:38;;;;;;;14.40;12.90;;;;;;;;;;5093349;28;20253;-78
2022/03/30 09:13:08;;;;;;;21.13;15.05;;;;;;;;;;5094196;28;20206;-78
2022/03/30 09:15:37;;;;;;;16.80;13.32;;;;;;;;;;5093384;28;20283;-78
2022/03/30 09:18:07;;;;;;;16.88;11.77;;;;;;;;;;5093539;28;20224;-77
2022/03/30 09:20:36;;;;;;;15.55;12.25;;;;;;;;;;5093619;28;20204;-78
2022/03/30 09:23:05;;;;;;;19.75;13.70;;;;;;;;;;5094035;28;20251;-78
2022/03/30 09:25:34;;;;;;;13.85;12.35;;;;;;;;;;5095031;28;20204;-78
2022/03/30 09:28:02;;;;;;;16.77;13.98;;;;;;;;;;5095014;28;20205;-78
2022/03/30 09:30:31;;;;;;;15.23;12.95;;;;;;;;;;5094713;28;20254;-78
2022/03/30 09:33:00;;;;;;;17.35;13.93;;;;;;;;;;5094978;28;20204;-78
2022/03/30 09:35:33;;;;;;;17.35;13.82;;;;;;;;;;5094737;28;20200;-78
2022/03/30 09:38:04;;;;;;;19.50;15.30;;;;;;;;;;5093537;28;20211;-78
2022/03/30 09:40:44;;;;;;;22.70;15.55;;;;;;;;;;5092981;28;20200;-78
2022/03/30 09:43:22;;;;;;;17.10;14.00;;;;;;;;;;5094025;28;20203;-78
2022/03/30 09:46:04;;;;;;;17.67;12.52;;;;;;;;;;5093049;28;20191;-78
2022/03/30 09:48:34;;;;;;;14.65;13.15;;;;;;;;;;5093030;28;20216;-78
2022/03/30 09:51:03;;;;;;;15.45;13.43;;;;;;;;;;5093937;28;20230;-78
2022/03/30 09:53:32;;;;;;;12.90;11.50;;;;;;;;;;5093233;28;20196;-77
2022/03/30 09:56:02;;;;;;;12.02;10.77;;;;;;;;;;5093341;28;20664;-77
2022/03/30 09:58:32;;;;;;;14.35;12.57;;;;;;;;;;5092876;28;20217;-77
2022/03/30 10:01:16;;;;;;;13.27;11.13;;;;;;;;;;5093327;28;20200;-77
2022/03/30 10:03:48;;;;;;;15.73;12.27;;;;;;;;;;5093070;28;20208;-78
2022/03/30 10:06:18;;;;;;;10.85;9.75;;;;;;;;;;5093246;28;20246;-78
2022/03/30 10:08:48;;;;;;;13.20;11.43;;;;;;;;;;5092760;28;20224;-78
2022/03/30 10:11:17;;;;;;;14.48;11.57;;;;;;;;;;5093089;28;20215;-77
2022/03/30 10:13:46;;;;;;;11.00;9.88;;;;;;;;;;5093453;28;20638;-77
2022/03/30 10:16:17;;;;;;;12.90;10.73;;;;;;;;;;5096160;28;20201;-78
2022/03/30 10:18:45;;;;;;;10.20;8.95;;;;;;;;;;5097132;28;20220;-78
2022/03/30 10:21:24;;;;;;;17.67;11.82;;;;;;;;;;5095733;28;20686;-78
2022/03/30 10:24:10;;;;;;;12.95;10.48;;;;;;;;;;5096544;28;20211;-78
2022/03/30 10:26:55;;;;;;;12.52;9.73;;;;;;;;;;5096767;28;20253;-78
2022/03/30 10:29:25;;;;;;;12.27;10.93;;;;;;;;;;5097163;28;20242;-79
2022/03/30 10:32:14;;;;;;;13.95;10.52;;;;;;;;;;5097798;28;20245;-78
2022/03/30 10:34:50;;;;;;;12.25;10.25;;;;;;;;;;5098307;28;20198;-79
2022/03/30 10:37:25;;;;;;;9.05;8.15;;;;;;;;;;5097012;28;20559;-79
2022/03/30 10:40:05;;;;;;;10.93;7.40;;;;;;;;;;5097811;28;20357;-78
2022/03/30 10:43:01;;;;;;;13.63;9.05;;;;;;;;;;5097081;28;20207;-78
2022/03/30 10:45:35;;;;;;;10.43;8.85;;;;;;;;;;5098157;28;20228;-79
2022/03/30 10:48:14;;;;;;;11.15;9.27;;;;;;;;;;5096818;28;20220;-79
2022/03/30 10:50:46;;;;;;;7.75;6.82;;;;;;;;;;5099160;28;20574;-79
2022/03/30 10:53:42;;;;;;;12.05;9.55;;;;;;;;;;5099210;28;20200;-79
2022/03/30 10:56:30;;;;;;;12.90;9.38;;;;;;;;;;5096395;28;20204;-79
2022/03/30 10:59:09;;;;;;;8.85;7.80;;;;;;;;;;5097682;28;20228;-78
2022/03/30 11:01:39;;;;;;;13.07;9.52;;;;;;;;;;5097677;28;20647;-79
2022/03/30 11:04:25;;;;;;;10.05;8.65;;;;;;;;;;5097792;28;20197;-78
2022/03/30 11:07:32;;;;;;;12.20;9.95;;;;;;;;;;5096000;28;20196;-79
2022/03/30 11:10:25;;;;;;;6.50;5.88;;;;;;;;;;5087373;28;20227;-78
2022/03/30 11:13:13;;;;;;;11.40;9.40;;;;;;;;;;5095886;28;20196;-78
2022/03/30 11:16:11;;;;;;;9.52;8.57;;;;;;;;;;5097843;28;20732;-78
2022/03/30 11:18:58;;;;;;;10.27;7.50;;;;;;;;;;5097470;28;20254;-79
2022/03/30 11:21:27;;;;;;;7.53;6.82;;;;;;;;;;5095578;28;20249;-78
2022/03/30 11:24:20;;;;;;;11.88;9.50;;;;;;;;;;5096522;28;20204;-78
2022/03/30 11:27:21;;;;;;;15.25;10.73;;;;;;;;;;5081052;28;20224;-78
2022/03/30 11:30:04;;;;;;;12.18;9.13;;;;;;;;;;5096699;28;20227;-78
2022/03/30 11:32:43;;;;;;;9.32;7.40;;;;;;;;;;5097243;28;20228;-78
2022/03/30 11:35:13;;;;;;;10.95;9.40;;;;;;;;;;5097107;28;20212;-78
2022/03/30 11:37:44;;;;;;;9.20;8.30;;;;;;;;;;5094558;28;20686;-78
2022/03/30 11:40:14;;;;;;;9.77;8.82;;;;;;;;;;5077231;28;20258;-77
2022/03/30 11:42:44;;;;;;;16.90;9.70;;;;;;;;;;5076184;28;20205;-77
2022/03/30 11:45:14;;;;;;;10.52;9.45;;;;;;;;;;5075562;28;20220;-77
2022/03/30 11:47:43;;;;;;;7.50;6.70;;;;;;;;;;5075477;28;20213;-78
2022/03/30 11:50:12;;;;;;;10.75;8.63;;;;;;;;;;5075398;28;20590;-78
2022/03/30 11:52:41;;;;;;;12.10;9.07;;;;;;;;;;5075123;28;20605;-78
2022/03/30 11:55:09;;;;;;;10.00;7.75;;;;;;;;;;5075291;28;20255;-78
2022/03/30 11:57:41;;;;;;;10.93;8.60;;;;;;;;;;5074808;28;20201;-78
2022/03/30 12:00:11;;;;;;;9.40;8.50;;;;;;;;;;5075385;28;20740;-78
2022/03/30 12:02:41;;;;;;;7.80;6.90;;;;;;;;;;5074797;28;20209;-77
2022/03/30 12:05:09;;;;;;;8.80;7.90;;;;;;;;;;5074717;28;20603;-78
2022/03/30 12:07:39;;;;;;;11.85;9.35;;;;;;;;;;5074476;28;20196;-78
2022/03/30 12:10:14;;;;;;;10.68;9.57;;;;;;;;;;5074801;28;20217;-78
2022/03/30 12:12:43;;;;;;;10.18;8.60;;;;;;;;;;5074752;28;20205;-78
2022/03/30 12:15:13;;;;;;;8.60;6.85;;;;;;;;;;5074221;28;20287;-77
2022/03/30 12:17:41;;;;;;;9.35;8.35;;;;;;;;;;5073458;28;20279;-77
2022/03/30 12:20:11;;;;;;;11.35;8.52;;;;;;;;;;5072851;28;20667;-77
2022/03/30 12:22:39;;;;;;;9.48;8.48;;;;;;;;;;5072830;28;20685;-77
2022/03/30 12:25:19;;;;;;;8.48;7.68;;;;;;;;;;5072775;28;20196;-77
2022/03/30 12:27:46;;;;;;;7.70;6.95;;;;;;;;;;5072592;28;20205;-78
2022/03/30 12:30:13;;;;;;;9.85;6.82;;;;;;;;;;5072822;28;20203;-77
2022/03/30 12:32:41;;;;;;;7.43;6.35;;;;;;;;;;5071673;28;20201;-77
2022/03/30 12:35:11;;;;;;;7.53;5.95;;;;;;;;;;5071935;28;20212;-77
2022/03/30 12:37:38;;;;;;;8.18;6.97;;;;;;;;;;5072926;28;20208;-77
2022/03/30 12:40:11;;;;;;;9.43;7.32;;;;;;;;;;5073709;28;20225;-77
2022/03/30 12:42:41;;;;;;;9.10;7.70;;;;;;;;;;5072774;28;20480;-77
2022/03/30 12:45:11;;;;;;;14.60;9.63;;;;;;;;;;5072858;28;20700;-79
2022/03/30 12:47:40;;;;;;;9.20;8.13;;;;;;;;;;5072531;28;20208;-77
2022/03/30 12:50:12;;;;;;;9.25;7.18;;;;;;;;;;5072582;28;20259;-76
2022/03/30 12:52:41;;;;;;;10.40;9.30;;;;;;;;;;5072262;28;20296;-78
2022/03/30 12:55:18;;;;;;;9.30;8.38;;;;;;;;;;5073148;28;20196;-77
2022/03/30 12:57:59;;;;;;;8.25;7.43;;;;;;;;;;5071892;28;20208;-76
2022/03/30 13:00:31;;;;;;;11.05;8.85;;;;;;;;;;5072213;28;20204;-77
2022/03/30 13:03:06;;;;;;;7.63;6.82;;;;;;;;;;5071670;28;20232;-77
2022/03/30 13:05:35;;;;;;;8.88;7.78;;;;;;;;;;5071864;28;20728;-77
2022/03/30 13:08:11;;;;;;;14.15;10.32;;;;;;;;;;5071741;28;20224;-77
2022/03/30 13:10:54;;;;;;;8.60;7.80;;;;;;;;;;5074470;28;20212;-77
2022/03/30 13:13:26;;;;;;;7.30;6.57;;;;;;;;;;5074137;28;20252;-77
2022/03/30 13:16:03;;;;;;;6.75;5.85;;;;;;;;;;5075488;28;20197;-77
2022/03/30 13:18:30;;;;;;;9.38;8.23;;;;;;;;;;5071651;28;20271;-76
2022/03/30 13:21:01;;;;;;;9.80;7.45;;;;;;;;;;5071407;28;20274;-77
2022/03/30 13:23:42;;;;;;;8.70;7.30;;;;;;;;;;5071458;28;20205;-76
2022/03/30 13:26:26;;;;;;;6.90;6.20;;;;;;;;;;5071859;28;20225;-77
2022/03/30 13:28:55;;;;;;;5.88;5.38;;;;;;;;;;5071563;28;20217;-77
2022/03/30 13:31:23;;;;;;;7.97;6.75;;;;;;;;;;5071128;28;20629;-77
2022/03/30 13:33:52;;;;;;;8.38;5.90;;;;;;;;;;5071231;28;20632;-76
2022/03/30 13:36:20;;;;;;;8.30;7.47;;;;;;;;;;5071791;28;20196;-77
2022/03/30 13:38:49;;;;;;;8.20;6.13;;;;;;;;;;5071403;28;20227;-76
2022/03/30 13:41:18;;;;;;;7.15;6.45;;;;;;;;;;5071494;28;20201;-76
2022/03/30 13:43:45;;;;;;;8.15;6.38;;;;;;;;;;5071104;28;20197;-76
2022/03/30 13:46:15;;;;;;;8.30;7.18;;;;;;;;;;5071633;28;20278;-77
2022/03/30 13:48:43;;;;;;;6.90;6.18;;;;;;;;;;5074315;28;20213;-76
2022/03/30 13:51:11;;;;;;;5.13;4.60;;;;;;;;;;5075339;28;20254;-77
2022/03/30 13:53:38;;;;;;;6.47;5.38;;;;;;;;;;5074884;28;20201;-77
2022/03/30 13:56:07;;;;;;;9.13;7.57;;;;;;;;;;5075211;28;20609;-77
2022/03/30 13:58:34;;;;;;;8.80;7.90;;;;;;;;;;5075479;28;20663;-76
2022/03/30 14:01:03;;;;;;;9.63;7.43;;;;;;;;;;5075182;28;20677;-77
2022/03/30 14:03:32;;;;;;;9.98;7.70;;;;;;;;;;5075057;28;20668;-76
2022/03/30 14:06:00;;;;;;;11.13;7.95;;;;;;;;;;5075387;28;20251;-76
2022/03/30 14:08:28;;;;;;;6.28;5.50;;;;;;;;;;5074644;28;20225;-77
2022/03/30 14:10:56;;;;;;;7.25;6.25;;;;;;;;;;5074615;28;20212;-76
2022/03/30 14:13:25;;;;;;;8.55;7.22;;;;;;;;;;5074408;28;20661;-77
2022/03/30 14:15:53;;;;;;;8.75;6.93;;;;;;;;;;5075163;28;20205;-77
2022/03/30 14:18:22;;;;;;;8.63;6.70;;;;;;;;;;5075130;28;20239;-77
2022/03/30 14:20:51;;;;;;;7.95;6.82;;;;;;;;;;5074851;28;20201;-77
2022/03/30 14:23:19;;;;;;;9.15;7.07;;;;;;;;;;5074530;28;20255;-77
2022/03/30 14:25:46;;;;;;;11.90;8.27;;;;;;;;;;5074876;28;20207;-77
2022/03/30 14:28:14;;;;;;;8.95;6.93;;;;;;;;;;5074588;28;20707;-77
2022/03/30 14:30:41;;;;;;;9.25;6.68;;;;;;;;;;5074151;28;20628;-76
2022/03/30 14:33:09;;;;;;;7.10;6.38;;;;;;;;;;5074496;28;20200;-77
2022/03/30 14:35:40;;;;;;;8.25;7.20;;;;;;;;;;5074670;28;20197;-77
2022/03/30 14:38:10;;;;;;;7.95;7.15;;;;;;;;;;5074675;28;20600;-77
2022/03/30 14:40:39;;;;;;;8.32;7.10;;;;;;;;;;5074106;28;20208;-76
2022/03/30 14:43:07;;;;;;;7.97;7.05;;;;;;;;;;5074480;28;20254;-76
2022/03/30 14:45:35;;;;;;;6.28;5.63;;;;;;;;;;5073779;28;20204;-76
2022/03/30 14:48:03;;;;;;;9.88;7.35;;;;;;;;;;5073857;28;20240;-76
2022/03/30 14:50:30;;;;;;;6.28;5.20;;;;;;;;;;5074014;28;20201;-77
2022/03/30 14:52:57;;;;;;;7.65;6.20;;;;;;;;;;5073806;28;20201;-75
2022/03/30 14:55:26;;;;;;;7.00;5.55;;;;;;;;;;5073807;28;20207;-76
2022/03/30 14:57:53;;;;;;;7.35;5.38;;;;;;;;;;5073983;28;20242;-76